sensor_id;sensor_type;location;lat;lon;timestamp;temperature;humidity
11647;DHT22;5880;52.342;9.662;2023-06-01T00:01:49;16.60;48.50
11647;DHT22;5880;52.342;9.662;2023-06-01T00:04:15;16.60;48.60
11647;DHT22;5880;52.342;9.662;2023-06-01T00:06:43;16.60;48.50
11647;DHT22;5880;52.342;9.662;2023-06-01T00:09:09;16.60;48.60
11647;DHT22;5880;52.342;9.662;2023-06-01T00:11:35;16.50;48.70
11647;DHT22;5880;52.342;9.662;2023-06-01T00:14:02;16.50;49.00
11647;DHT22;5880;52.342;9.662;2023-06-01T00:16:28;16.50;48.90
11647;DHT22;5880;52.342;9.662;2023-06-01T00:18:57;16.50;48.90
11647;DHT22;5880;52.342;9.662;2023-06-01T00:21:26;16.40;48.90
11647;DHT22;5880;52.342;9.662;2023-06-01T00:23:53;16.40;48.90
11647;DHT22;5880;52.342;9.662;2023-06-01T00:26:18;16.40;49.00
11647;DHT22;5880;52.342;9.662;2023-06-01T00:28:44;16.40;49.00
11647;DHT22;5880;52.342;9.662;2023-06-01T00:31:10;16.30;49.10
11647;DHT22;5880;52.342;9.662;2023-06-01T00:33:35;16.40;49.10
11647;DHT22;5880;52.342;9.662;2023-06-01T00:36:01;16.30;49.10
11647;DHT22;5880;52.342;9.662;2023-06-01T00:38:27;16.30;49.30
11647;DHT22;5880;52.342;9.662;2023-06-01T00:40:52;16.20;49.40
11647;DHT22;5880;52.342;9.662;2023-06-01T00:43:18;16.20;49.50
11647;DHT22;5880;52.342;9.662;2023-06-01T00:45:44;16.20;49.60
11647;DHT22;5880;52.342;9.662;2023-06-01T00:48:15;16.20;49.60
11647;DHT22;5880;52.342;9.662;2023-06-01T00:50:44;16.20;50.40
11647;DHT22;5880;52.342;9.662;2023-06-01T00:53:17;16.20;50.20
11647;DHT22;5880;52.342;9.662;2023-06-01T00:55:45;16.20;50.10
11647;DHT22;5880;52.342;9.662;2023-06-01T00:58:12;16.10;49.70
11647;DHT22;5880;52.342;9.662;2023-06-01T01:00:39;16.10;49.90
11647;DHT22;5880;52.342;9.662;2023-06-01T01:03:05;16.00;49.80
11647;DHT22;5880;52.342;9.662;2023-06-01T01:05:38;16.00;49.80
11647;DHT22;5880;52.342;9.662;2023-06-01T01:08:08;16.00;50.10
11647;DHT22;5880;52.342;9.662;2023-06-01T01:10:45;16.00;49.90
11647;DHT22;5880;52.342;9.662;2023-06-01T01:16:26;15.90;51.00
11647;DHT22;5880;52.342;9.662;2023-06-01T01:19:09;15.90;51.40
11647;DHT22;5880;52.342;9.662;2023-06-01T01:31:09;15.90;51.90
11647;DHT22;5880;52.342;9.662;2023-06-01T01:33:40;16.00;50.60
11647;DHT22;5880;52.342;9.662;2023-06-01T01:36:07;15.90;50.70
11647;DHT22;5880;52.342;9.662;2023-06-01T01:38:35;15.90;50.40
11647;DHT22;5880;52.342;9.662;2023-06-01T01:41:02;15.90;50.60
11647;DHT22;5880;52.342;9.662;2023-06-01T01:43:29;15.90;50.60
11647;DHT22;5880;52.342;9.662;2023-06-01T01:46:21;15.90;50.70
11647;DHT22;5880;52.342;9.662;2023-06-01T01:54:43;15.90;51.90
11647;DHT22;5880;52.342;9.662;2023-06-01T01:57:12;15.90;51.30
11647;DHT22;5880;52.342;9.662;2023-06-01T01:59:41;15.90;51.30
11647;DHT22;5880;52.342;9.662;2023-06-01T02:02:07;15.90;51.20
11647;DHT22;5880;52.342;9.662;2023-06-01T02:04:41;15.90;51.00
11647;DHT22;5880;52.342;9.662;2023-06-01T02:07:08;15.90;51.90
11647;DHT22;5880;52.342;9.662;2023-06-01T02:09:34;15.90;51.20
11647;DHT22;5880;52.342;9.662;2023-06-01T02:12:00;15.90;51.40
11647;DHT22;5880;52.342;9.662;2023-06-01T02:14:27;15.90;51.40
11647;DHT22;5880;52.342;9.662;2023-06-01T02:16:54;15.90;51.30
11647;DHT22;5880;52.342;9.662;2023-06-01T02:19:20;15.90;51.30
11647;DHT22;5880;52.342;9.662;2023-06-01T02:21:45;15.90;51.40
11647;DHT22;5880;52.342;9.662;2023-06-01T02:24:11;15.80;51.30
11647;DHT22;5880;52.342;9.662;2023-06-01T02:26:38;15.80;51.40
11647;DHT22;5880;52.342;9.662;2023-06-01T02:29:04;15.80;51.40
11647;DHT22;5880;52.342;9.662;2023-06-01T02:31:33;15.90;51.40
11647;DHT22;5880;52.342;9.662;2023-06-01T02:33:59;15.80;51.60
11647;DHT22;5880;52.342;9.662;2023-06-01T02:36:26;15.80;51.50
11647;DHT22;5880;52.342;9.662;2023-06-01T02:38:54;15.80;51.80
11647;DHT22;5880;52.342;9.662;2023-06-01T02:41:21;15.80;51.70
11647;DHT22;5880;52.342;9.662;2023-06-01T02:43:47;15.80;51.80
11647;DHT22;5880;52.342;9.662;2023-06-01T02:46:16;15.80;51.70
11647;DHT22;5880;52.342;9.662;2023-06-01T02:48:43;15.80;51.60
11647;DHT22;5880;52.342;9.662;2023-06-01T02:51:09;15.80;51.60
11647;DHT22;5880;52.342;9.662;2023-06-01T02:53:34;15.80;51.60
11647;DHT22;5880;52.342;9.662;2023-06-01T02:56:00;15.80;51.80
11647;DHT22;5880;52.342;9.662;2023-06-01T02:58:26;15.80;51.80
11647;DHT22;5880;52.342;9.662;2023-06-01T03:00:57;15.80;51.70
11647;DHT22;5880;52.342;9.662;2023-06-01T03:03:26;15.80;51.60
11647;DHT22;5880;52.342;9.662;2023-06-01T03:05:53;15.80;51.90
11647;DHT22;5880;52.342;9.662;2023-06-01T03:08:20;15.80;51.90
11647;DHT22;5880;52.342;9.662;2023-06-01T03:10:46;15.80;52.00
11647;DHT22;5880;52.342;9.662;2023-06-01T03:13:12;15.80;51.90
11647;DHT22;5880;52.342;9.662;2023-06-01T03:15:38;15.80;52.00
11647;DHT22;5880;52.342;9.662;2023-06-01T03:18:04;15.80;51.80
11647;DHT22;5880;52.342;9.662;2023-06-01T03:20:34;15.80;52.00
11647;DHT22;5880;52.342;9.662;2023-06-01T03:23:00;15.90;52.10
11647;DHT22;5880;52.342;9.662;2023-06-01T03:25:26;15.80;52.00
11647;DHT22;5880;52.342;9.662;2023-06-01T03:27:52;15.80;51.90
11647;DHT22;5880;52.342;9.662;2023-06-01T03:30:18;15.90;51.90
11647;DHT22;5880;52.342;9.662;2023-06-01T03:32:44;15.90;52.10
11647;DHT22;5880;52.342;9.662;2023-06-01T03:35:13;15.80;52.20
11647;DHT22;5880;52.342;9.662;2023-06-01T03:37:43;15.80;52.90
11647;DHT22;5880;52.342;9.662;2023-06-01T03:40:11;15.80;52.90
11647;DHT22;5880;52.342;9.662;2023-06-01T03:42:54;15.80;52.50
11647;DHT22;5880;52.342;9.662;2023-06-01T03:45:20;15.80;54.00
11647;DHT22;5880;52.342;9.662;2023-06-01T03:47:46;15.80;52.50
11647;DHT22;5880;52.342;9.662;2023-06-01T03:50:11;15.80;52.60
11647;DHT22;5880;52.342;9.662;2023-06-01T03:52:37;15.80;52.70
11647;DHT22;5880;52.342;9.662;2023-06-01T03:55:05;15.90;52.70
11647;DHT22;5880;52.342;9.662;2023-06-01T03:57:35;15.90;52.90
11647;DHT22;5880;52.342;9.662;2023-06-01T04:00:05;15.90;52.70
11647;DHT22;5880;52.342;9.662;2023-06-01T04:02:47;15.90;52.70
11647;DHT22;5880;52.342;9.662;2023-06-01T04:05:15;15.90;53.00
11647;DHT22;5880;52.342;9.662;2023-06-01T04:07:49;15.90;52.50
11647;DHT22;5880;52.342;9.662;2023-06-01T04:10:17;15.90;53.10
11647;DHT22;5880;52.342;9.662;2023-06-01T04:12:43;15.90;52.50
11647;DHT22;5880;52.342;9.662;2023-06-01T04:15:11;15.90;52.70
11647;DHT22;5880;52.342;9.662;2023-06-01T04:17:39;15.90;52.80
11647;DHT22;5880;52.342;9.662;2023-06-01T04:20:09;15.90;52.80
11647;DHT22;5880;52.342;9.662;2023-06-01T04:22:40;15.80;53.10
11647;DHT22;5880;52.342;9.662;2023-06-01T04:25:08;15.80;52.70
11647;DHT22;5880;52.342;9.662;2023-06-01T04:27:37;15.80;53.10
11647;DHT22;5880;52.342;9.662;2023-06-01T04:30:10;15.80;52.90
11647;DHT22;5880;52.342;9.662;2023-06-01T04:32:41;15.90;53.10
11647;DHT22;5880;52.342;9.662;2023-06-01T04:35:09;15.90;53.00
11647;DHT22;5880;52.342;9.662;2023-06-01T04:37:36;15.80;52.90
11647;DHT22;5880;52.342;9.662;2023-06-01T04:40:05;15.90;53.20
11647;DHT22;5880;52.342;9.662;2023-06-01T04:42:34;15.80;53.10
11647;DHT22;5880;52.342;9.662;2023-06-01T04:45:01;15.80;53.00
11647;DHT22;5880;52.342;9.662;2023-06-01T04:47:32;15.80;53.30
11647;DHT22;5880;52.342;9.662;2023-06-01T04:49:58;15.80;53.40
11647;DHT22;5880;52.342;9.662;2023-06-01T04:52:24;15.80;53.40
11647;DHT22;5880;52.342;9.662;2023-06-01T04:54:49;15.80;53.60
11647;DHT22;5880;52.342;9.662;2023-06-01T04:57:15;15.80;53.60
11647;DHT22;5880;52.342;9.662;2023-06-01T04:59:42;15.80;53.70
11647;DHT22;5880;52.342;9.662;2023-06-01T05:02:07;15.80;53.90
11647;DHT22;5880;52.342;9.662;2023-06-01T05:04:33;15.80;54.10
11647;DHT22;5880;52.342;9.662;2023-06-01T05:06:59;15.80;54.10
11647;DHT22;5880;52.342;9.662;2023-06-01T05:09:25;15.80;54.10
11647;DHT22;5880;52.342;9.662;2023-06-01T05:11:51;15.80;54.20
11647;DHT22;5880;52.342;9.662;2023-06-01T05:14:17;15.80;54.40
11647;DHT22;5880;52.342;9.662;2023-06-01T05:16:42;15.80;54.40
11647;DHT22;5880;52.342;9.662;2023-06-01T05:19:08;15.90;54.50
11647;DHT22;5880;52.342;9.662;2023-06-01T05:21:34;15.90;54.50
11647;DHT22;5880;52.342;9.662;2023-06-01T05:23:59;15.90;54.70
11647;DHT22;5880;52.342;9.662;2023-06-01T05:26:25;15.90;54.80
11647;DHT22;5880;52.342;9.662;2023-06-01T05:28:52;15.90;54.90
11647;DHT22;5880;52.342;9.662;2023-06-01T05:31:17;15.90;54.90
11647;DHT22;5880;52.342;9.662;2023-06-01T05:33:44;15.90;55.00
11647;DHT22;5880;52.342;9.662;2023-06-01T05:36:10;15.90;55.00
11647;DHT22;5880;52.342;9.662;2023-06-01T05:38:36;16.00;55.00
11647;DHT22;5880;52.342;9.662;2023-06-01T05:41:02;16.00;55.10
11647;DHT22;5880;52.342;9.662;2023-06-01T05:43:28;16.00;55.10
11647;DHT22;5880;52.342;9.662;2023-06-01T05:45:53;16.00;55.20
11647;DHT22;5880;52.342;9.662;2023-06-01T05:48:19;16.00;55.40
11647;DHT22;5880;52.342;9.662;2023-06-01T05:50:44;16.10;55.50
11647;DHT22;5880;52.342;9.662;2023-06-01T05:53:10;16.10;55.50
11647;DHT22;5880;52.342;9.662;2023-06-01T05:55:36;16.10;55.40
11647;DHT22;5880;52.342;9.662;2023-06-01T05:58:01;16.60;55.50
11647;DHT22;5880;52.342;9.662;2023-06-01T06:00:27;16.10;55.20
11647;DHT22;5880;52.342;9.662;2023-06-01T06:02:53;16.10;55.20
11647;DHT22;5880;52.342;9.662;2023-06-01T06:05:18;16.10;55.30
11647;DHT22;5880;52.342;9.662;2023-06-01T06:07:44;16.10;55.40
11647;DHT22;5880;52.342;9.662;2023-06-01T06:10:11;16.10;55.30
11647;DHT22;5880;52.342;9.662;2023-06-01T06:12:37;16.10;55.50
11647;DHT22;5880;52.342;9.662;2023-06-01T06:15:03;16.10;55.40
11647;DHT22;5880;52.342;9.662;2023-06-01T06:17:29;16.20;55.50
11647;DHT22;5880;52.342;9.662;2023-06-01T06:19:55;16.20;55.50
11647;DHT22;5880;52.342;9.662;2023-06-01T06:22:21;16.20;55.50
11647;DHT22;5880;52.342;9.662;2023-06-01T06:24:46;16.20;55.50
11647;DHT22;5880;52.342;9.662;2023-06-01T06:27:12;16.20;55.60
11647;DHT22;5880;52.342;9.662;2023-06-01T06:29:38;16.20;55.60
11647;DHT22;5880;52.342;9.662;2023-06-01T06:32:04;16.30;55.70
11647;DHT22;5880;52.342;9.662;2023-06-01T06:34:30;16.30;55.60
11647;DHT22;5880;52.342;9.662;2023-06-01T06:37:03;16.30;55.50
11647;DHT22;5880;52.342;9.662;2023-06-01T06:39:30;16.30;55.70
11647;DHT22;5880;52.342;9.662;2023-06-01T06:41:55;16.30;55.70
11647;DHT22;5880;52.342;9.662;2023-06-01T06:44:21;16.30;55.70
11647;DHT22;5880;52.342;9.662;2023-06-01T06:46:47;16.30;55.50
11647;DHT22;5880;52.342;9.662;2023-06-01T06:49:12;16.30;55.60
11647;DHT22;5880;52.342;9.662;2023-06-01T06:51:38;16.30;55.70
11647;DHT22;5880;52.342;9.662;2023-06-01T06:54:03;16.30;55.70
11647;DHT22;5880;52.342;9.662;2023-06-01T06:56:31;16.30;55.60
11647;DHT22;5880;52.342;9.662;2023-06-01T06:58:56;16.30;55.80
11647;DHT22;5880;52.342;9.662;2023-06-01T07:01:22;16.30;55.80
11647;DHT22;5880;52.342;9.662;2023-06-01T07:03:51;16.30;55.90
11647;DHT22;5880;52.342;9.662;2023-06-01T07:06:17;16.30;56.00
11647;DHT22;5880;52.342;9.662;2023-06-01T07:08:43;16.70;56.40
11647;DHT22;5880;52.342;9.662;2023-06-01T07:11:09;16.40;56.20
11647;DHT22;5880;52.342;9.662;2023-06-01T07:13:35;16.40;56.20
11647;DHT22;5880;52.342;9.662;2023-06-01T07:16:02;16.40;56.20
11647;DHT22;5880;52.342;9.662;2023-06-01T07:18:28;16.40;56.30
11647;DHT22;5880;52.342;9.662;2023-06-01T07:20:54;16.50;56.10
11647;DHT22;5880;52.342;9.662;2023-06-01T07:23:20;16.40;56.00
11647;DHT22;5880;52.342;9.662;2023-06-01T07:25:45;16.50;56.10
11647;DHT22;5880;52.342;9.662;2023-06-01T07:28:11;16.50;56.10
11647;DHT22;5880;52.342;9.662;2023-06-01T07:30:38;16.40;55.80
11647;DHT22;5880;52.342;9.662;2023-06-01T07:33:04;16.50;55.90
11647;DHT22;5880;52.342;9.662;2023-06-01T07:35:29;16.50;55.90
11647;DHT22;5880;52.342;9.662;2023-06-01T07:37:55;16.50;55.90
11647;DHT22;5880;52.342;9.662;2023-06-01T07:40:21;16.50;56.00
11647;DHT22;5880;52.342;9.662;2023-06-01T07:42:47;16.50;56.00
11647;DHT22;5880;52.342;9.662;2023-06-01T07:45:13;16.60;55.80
11647;DHT22;5880;52.342;9.662;2023-06-01T07:47:39;16.60;55.70
11647;DHT22;5880;52.342;9.662;2023-06-01T07:50:05;16.60;55.90
11647;DHT22;5880;52.342;9.662;2023-06-01T07:52:31;16.60;56.20
11647;DHT22;5880;52.342;9.662;2023-06-01T07:54:57;16.70;56.30
11647;DHT22;5880;52.342;9.662;2023-06-01T07:57:23;16.70;56.10
11647;DHT22;5880;52.342;9.662;2023-06-01T07:59:49;16.80;56.20
11647;DHT22;5880;52.342;9.662;2023-06-01T08:02:14;16.80;56.10
11647;DHT22;5880;52.342;9.662;2023-06-01T08:04:40;16.80;56.00
11647;DHT22;5880;52.342;9.662;2023-06-01T08:07:06;16.80;56.00
11647;DHT22;5880;52.342;9.662;2023-06-01T08:09:32;16.80;56.00
11647;DHT22;5880;52.342;9.662;2023-06-01T08:11:58;16.80;55.90
11647;DHT22;5880;52.342;9.662;2023-06-01T08:14:24;16.90;55.90
11647;DHT22;5880;52.342;9.662;2023-06-01T08:16:50;16.90;56.00
11647;DHT22;5880;52.342;9.662;2023-06-01T08:19:19;16.80;55.70
11647;DHT22;5880;52.342;9.662;2023-06-01T08:21:44;16.90;56.00
11647;DHT22;5880;52.342;9.662;2023-06-01T08:24:11;16.90;56.00
11647;DHT22;5880;52.342;9.662;2023-06-01T08:26:38;17.00;56.10
11647;DHT22;5880;52.342;9.662;2023-06-01T08:29:04;17.00;56.00
11647;DHT22;5880;52.342;9.662;2023-06-01T08:31:30;17.00;56.10
11647;DHT22;5880;52.342;9.662;2023-06-01T08:33:56;17.00;56.20
11647;DHT22;5880;52.342;9.662;2023-06-01T08:36:21;17.00;56.10
11647;DHT22;5880;52.342;9.662;2023-06-01T08:38:48;17.00;56.10
11647;DHT22;5880;52.342;9.662;2023-06-01T08:41:50;17.00;56.30
11647;DHT22;5880;52.342;9.662;2023-06-01T08:44:27;17.00;57.40
11647;DHT22;5880;52.342;9.662;2023-06-01T08:46:54;17.00;56.70
11647;DHT22;5880;52.342;9.662;2023-06-01T08:49:21;17.10;56.60
11647;DHT22;5880;52.342;9.662;2023-06-01T08:51:51;17.10;56.60
11647;DHT22;5880;52.342;9.662;2023-06-01T08:54:20;17.20;56.50
11647;DHT22;5880;52.342;9.662;2023-06-01T08:56:46;17.10;56.20
11647;DHT22;5880;52.342;9.662;2023-06-01T08:59:12;17.20;56.30
11647;DHT22;5880;52.342;9.662;2023-06-01T09:01:39;17.20;56.40
11647;DHT22;5880;52.342;9.662;2023-06-01T09:04:05;17.20;56.30
11647;DHT22;5880;52.342;9.662;2023-06-01T09:06:31;17.20;56.20
11647;DHT22;5880;52.342;9.662;2023-06-01T09:08:56;17.30;56.30
11647;DHT22;5880;52.342;9.662;2023-06-01T09:11:25;17.30;56.10
11647;DHT22;5880;52.342;9.662;2023-06-01T09:13:51;17.30;56.30
11647;DHT22;5880;52.342;9.662;2023-06-01T09:16:17;17.00;56.20
11647;DHT22;5880;52.342;9.662;2023-06-01T09:18:55;17.30;56.30
11647;DHT22;5880;52.342;9.662;2023-06-01T09:21:21;17.30;57.10
11647;DHT22;5880;52.342;9.662;2023-06-01T09:23:47;17.40;56.50
11647;DHT22;5880;52.342;9.662;2023-06-01T09:26:14;17.40;56.60
11647;DHT22;5880;52.342;9.662;2023-06-01T09:31:49;17.50;56.80
11647;DHT22;5880;52.342;9.662;2023-06-01T09:34:17;17.60;56.60
11647;DHT22;5880;52.342;9.662;2023-06-01T09:36:54;17.60;56.10
11647;DHT22;5880;52.342;9.662;2023-06-01T09:39:24;17.60;57.00
11647;DHT22;5880;52.342;9.662;2023-06-01T09:41:55;17.60;56.50
11647;DHT22;5880;52.342;9.662;2023-06-01T09:44:24;17.70;56.90
11647;DHT22;5880;52.342;9.662;2023-06-01T09:47:00;17.70;56.60
11647;DHT22;5880;52.342;9.662;2023-06-01T09:54:38;17.80;56.50
11647;DHT22;5880;52.342;9.662;2023-06-01T09:57:20;17.80;56.50
11647;DHT22;5880;52.342;9.662;2023-06-01T09:59:48;17.80;56.40
11647;DHT22;5880;52.342;9.662;2023-06-01T10:02:19;17.80;56.10
11647;DHT22;5880;52.342;9.662;2023-06-01T10:04:55;17.90;56.50
11647;DHT22;5880;52.342;9.662;2023-06-01T10:07:26;17.90;56.70
11647;DHT22;5880;52.342;9.662;2023-06-01T10:09:55;17.90;56.50
11647;DHT22;5880;52.342;9.662;2023-06-01T10:12:27;18.00;56.30
11647;DHT22;5880;52.342;9.662;2023-06-01T10:14:53;18.10;56.20
11647;DHT22;5880;52.342;9.662;2023-06-01T10:17:22;18.10;56.00
11647;DHT22;5880;52.342;9.662;2023-06-01T10:19:48;18.10;55.80
11647;DHT22;5880;52.342;9.662;2023-06-01T10:22:14;18.20;55.80
11647;DHT22;5880;52.342;9.662;2023-06-01T10:24:40;18.20;55.70
11647;DHT22;5880;52.342;9.662;2023-06-01T10:29:55;18.20;55.90
11647;DHT22;5880;52.342;9.662;2023-06-01T10:35:03;18.20;56.30
11647;DHT22;5880;52.342;9.662;2023-06-01T10:37:33;18.30;56.00
11647;DHT22;5880;52.342;9.662;2023-06-01T10:42:43;18.40;56.70
11647;DHT22;5880;52.342;9.662;2023-06-01T10:45:36;18.40;56.30
11647;DHT22;5880;52.342;9.662;2023-06-01T10:48:07;18.40;56.30
11647;DHT22;5880;52.342;9.662;2023-06-01T10:50:36;18.40;55.90
11647;DHT22;5880;52.342;9.662;2023-06-01T10:53:36;18.50;55.90
11647;DHT22;5880;52.342;9.662;2023-06-01T10:56:21;18.50;56.30
11647;DHT22;5880;52.342;9.662;2023-06-01T11:01:38;18.50;56.00
11647;DHT22;5880;52.342;9.662;2023-06-01T11:04:06;18.50;55.30
11647;DHT22;5880;52.342;9.662;2023-06-01T11:06:33;18.50;55.10
11647;DHT22;5880;52.342;9.662;2023-06-01T11:09:06;18.40;55.10
11647;DHT22;5880;52.342;9.662;2023-06-01T11:14:18;18.50;56.10
11647;DHT22;5880;52.342;9.662;2023-06-01T11:16:45;18.40;55.90
11647;DHT22;5880;52.342;9.662;2023-06-01T11:19:20;18.40;55.90
11647;DHT22;5880;52.342;9.662;2023-06-01T11:21:55;18.50;56.50
11647;DHT22;5880;52.342;9.662;2023-06-01T11:24:31;18.50;56.50
11647;DHT22;5880;52.342;9.662;2023-06-01T11:27:10;18.50;56.20
11647;DHT22;5880;52.342;9.662;2023-06-01T11:29:36;18.60;56.40
11647;DHT22;5880;52.342;9.662;2023-06-01T11:32:04;18.60;55.80
11647;DHT22;5880;52.342;9.662;2023-06-01T11:37:00;18.70;55.60
11647;DHT22;5880;52.342;9.662;2023-06-01T11:39:27;18.70;55.60
11647;DHT22;5880;52.342;9.662;2023-06-01T11:42:08;18.70;55.60
11647;DHT22;5880;52.342;9.662;2023-06-01T11:44:38;18.70;55.70
11647;DHT22;5880;52.342;9.662;2023-06-01T11:47:06;18.60;55.60
11647;DHT22;5880;52.342;9.662;2023-06-01T11:49:46;18.60;55.60
11647;DHT22;5880;52.342;9.662;2023-06-01T11:52:17;18.70;55.70
11647;DHT22;5880;52.342;9.662;2023-06-01T11:54:44;18.60;55.20
11647;DHT22;5880;52.342;9.662;2023-06-01T11:57:10;18.60;55.60
11647;DHT22;5880;52.342;9.662;2023-06-01T11:59:41;18.60;55.80
11647;DHT22;5880;52.342;9.662;2023-06-01T12:02:23;18.60;56.00
11647;DHT22;5880;52.342;9.662;2023-06-01T12:04:59;18.60;55.90
11647;DHT22;5880;52.342;9.662;2023-06-01T12:07:31;18.70;56.00
11647;DHT22;5880;52.342;9.662;2023-06-01T12:09:57;18.60;55.70
11647;DHT22;5880;52.342;9.662;2023-06-01T12:12:26;18.70;55.90
11647;DHT22;5880;52.342;9.662;2023-06-01T12:14:54;18.70;55.80
11647;DHT22;5880;52.342;9.662;2023-06-01T12:17:20;18.70;55.80
11647;DHT22;5880;52.342;9.662;2023-06-01T12:19:50;18.70;55.60
11647;DHT22;5880;52.342;9.662;2023-06-01T12:22:17;18.60;55.90
11647;DHT22;5880;52.342;9.662;2023-06-01T12:24:43;18.70;55.80
11647;DHT22;5880;52.342;9.662;2023-06-01T12:27:17;18.70;55.70
11647;DHT22;5880;52.342;9.662;2023-06-01T12:29:47;18.70;56.50
11647;DHT22;5880;52.342;9.662;2023-06-01T12:32:15;18.70;56.20
11647;DHT22;5880;52.342;9.662;2023-06-01T12:34:43;18.70;56.30
11647;DHT22;5880;52.342;9.662;2023-06-01T12:37:16;18.70;56.80
11647;DHT22;5880;52.342;9.662;2023-06-01T12:39:50;18.70;56.50
11647;DHT22;5880;52.342;9.662;2023-06-01T12:42:17;18.80;56.00
11647;DHT22;5880;52.342;9.662;2023-06-01T12:44:43;18.80;55.80
11647;DHT22;5880;52.342;9.662;2023-06-01T12:47:11;18.80;55.70
11647;DHT22;5880;52.342;9.662;2023-06-01T12:49:37;18.90;55.70
11647;DHT22;5880;52.342;9.662;2023-06-01T12:52:04;18.80;55.60
11647;DHT22;5880;52.342;9.662;2023-06-01T12:54:30;18.80;55.50
11647;DHT22;5880;52.342;9.662;2023-06-01T12:56:55;18.80;55.50
11647;DHT22;5880;52.342;9.662;2023-06-01T12:59:21;18.90;55.50
11647;DHT22;5880;52.342;9.662;2023-06-01T13:01:47;18.80;55.20
11647;DHT22;5880;52.342;9.662;2023-06-01T13:04:13;18.80;55.40
11647;DHT22;5880;52.342;9.662;2023-06-01T13:06:39;18.80;55.30
11647;DHT22;5880;52.342;9.662;2023-06-01T13:09:05;18.80;55.30
11647;DHT22;5880;52.342;9.662;2023-06-01T13:11:32;18.80;55.40
11647;DHT22;5880;52.342;9.662;2023-06-01T13:13:57;18.80;55.50
11647;DHT22;5880;52.342;9.662;2023-06-01T13:16:23;18.80;55.40
11647;DHT22;5880;52.342;9.662;2023-06-01T13:18:49;18.90;55.50
11647;DHT22;5880;52.342;9.662;2023-06-01T13:21:16;19.00;55.80
11647;DHT22;5880;52.342;9.662;2023-06-01T13:23:43;18.90;55.60
11647;DHT22;5880;52.342;9.662;2023-06-01T13:26:09;18.90;55.50
11647;DHT22;5880;52.342;9.662;2023-06-01T13:28:35;18.90;55.80
11647;DHT22;5880;52.342;9.662;2023-06-01T13:31:01;19.00;55.80
11647;DHT22;5880;52.342;9.662;2023-06-01T13:33:27;19.00;55.60
11647;DHT22;5880;52.342;9.662;2023-06-01T13:35:53;19.10;55.80
11647;DHT22;5880;52.342;9.662;2023-06-01T13:38:18;19.10;55.90
11647;DHT22;5880;52.342;9.662;2023-06-01T13:40:44;19.20;55.60
11647;DHT22;5880;52.342;9.662;2023-06-01T13:43:10;19.20;55.30
11647;DHT22;5880;52.342;9.662;2023-06-01T13:45:36;19.20;55.10
11647;DHT22;5880;52.342;9.662;2023-06-01T13:48:02;19.30;54.60
11647;DHT22;5880;52.342;9.662;2023-06-01T13:50:27;19.30;54.30
11647;DHT22;5880;52.342;9.662;2023-06-01T13:52:53;19.30;54.50
11647;DHT22;5880;52.342;9.662;2023-06-01T13:55:19;19.30;54.90
11647;DHT22;5880;52.342;9.662;2023-06-01T13:57:45;19.30;54.90
11647;DHT22;5880;52.342;9.662;2023-06-01T14:00:11;19.40;54.90
11647;DHT22;5880;52.342;9.662;2023-06-01T14:02:37;19.40;54.70
11647;DHT22;5880;52.342;9.662;2023-06-01T14:05:03;19.50;54.40
11647;DHT22;5880;52.342;9.662;2023-06-01T14:07:29;19.50;54.00
11647;DHT22;5880;52.342;9.662;2023-06-01T14:09:55;19.60;53.80
11647;DHT22;5880;52.342;9.662;2023-06-01T14:12:21;19.70;53.80
11647;DHT22;5880;52.342;9.662;2023-06-01T14:14:47;19.70;53.50
11647;DHT22;5880;52.342;9.662;2023-06-01T14:17:12;19.80;53.60
11647;DHT22;5880;52.342;9.662;2023-06-01T14:19:38;19.80;53.60
11647;DHT22;5880;52.342;9.662;2023-06-01T14:22:04;19.80;53.30
11647;DHT22;5880;52.342;9.662;2023-06-01T14:24:29;19.90;53.30
11647;DHT22;5880;52.342;9.662;2023-06-01T14:26:56;19.90;53.00
11647;DHT22;5880;52.342;9.662;2023-06-01T14:29:22;19.90;53.10
11647;DHT22;5880;52.342;9.662;2023-06-01T14:31:47;19.90;52.80
11647;DHT22;5880;52.342;9.662;2023-06-01T14:34:13;19.90;52.50
11647;DHT22;5880;52.342;9.662;2023-06-01T14:36:40;20.00;52.40
11647;DHT22;5880;52.342;9.662;2023-06-01T14:39:06;20.00;52.20
11647;DHT22;5880;52.342;9.662;2023-06-01T14:41:31;20.00;52.10
11647;DHT22;5880;52.342;9.662;2023-06-01T14:43:57;20.00;52.20
11647;DHT22;5880;52.342;9.662;2023-06-01T14:46:23;20.00;52.00
11647;DHT22;5880;52.342;9.662;2023-06-01T14:48:48;19.90;51.80
11647;DHT22;5880;52.342;9.662;2023-06-01T14:51:14;19.90;51.60
11647;DHT22;5880;52.342;9.662;2023-06-01T14:53:40;20.00;51.60
11647;DHT22;5880;52.342;9.662;2023-06-01T14:56:06;19.90;51.60
11647;DHT22;5880;52.342;9.662;2023-06-01T14:58:32;19.90;51.20
11647;DHT22;5880;52.342;9.662;2023-06-01T15:00:57;19.90;51.20
11647;DHT22;5880;52.342;9.662;2023-06-01T15:03:24;19.80;51.10
11647;DHT22;5880;52.342;9.662;2023-06-01T15:05:50;19.80;50.90
11647;DHT22;5880;52.342;9.662;2023-06-01T15:08:16;19.80;50.90
11647;DHT22;5880;52.342;9.662;2023-06-01T15:10:46;19.80;50.90
11647;DHT22;5880;52.342;9.662;2023-06-01T15:13:12;19.70;51.10
11647;DHT22;5880;52.342;9.662;2023-06-01T15:15:40;19.70;51.00
11647;DHT22;5880;52.342;9.662;2023-06-01T15:18:06;19.70;51.00
11647;DHT22;5880;52.342;9.662;2023-06-01T15:20:32;19.70;51.10
11647;DHT22;5880;52.342;9.662;2023-06-01T15:22:58;19.60;51.10
11647;DHT22;5880;52.342;9.662;2023-06-01T15:25:24;19.60;51.00
11647;DHT22;5880;52.342;9.662;2023-06-01T15:27:50;19.60;51.20
11647;DHT22;5880;52.342;9.662;2023-06-01T15:30:16;19.60;51.10
11647;DHT22;5880;52.342;9.662;2023-06-01T15:32:41;19.60;50.90
11647;DHT22;5880;52.342;9.662;2023-06-01T15:35:07;19.50;50.90
11647;DHT22;5880;52.342;9.662;2023-06-01T15:37:33;19.50;50.90
11647;DHT22;5880;52.342;9.662;2023-06-01T15:39:59;19.50;51.30
11647;DHT22;5880;52.342;9.662;2023-06-01T15:42:25;19.50;51.50
11647;DHT22;5880;52.342;9.662;2023-06-01T15:44:51;19.50;51.60
11647;DHT22;5880;52.342;9.662;2023-06-01T15:47:17;19.50;51.40
11647;DHT22;5880;52.342;9.662;2023-06-01T15:49:42;19.70;51.40
11647;DHT22;5880;52.342;9.662;2023-06-01T15:52:08;19.50;51.70
11647;DHT22;5880;52.342;9.662;2023-06-01T15:54:35;19.50;51.50
11647;DHT22;5880;52.342;9.662;2023-06-01T15:57:02;19.60;51.40
11647;DHT22;5880;52.342;9.662;2023-06-01T15:59:32;19.60;51.10
11647;DHT22;5880;52.342;9.662;2023-06-01T16:01:58;19.50;51.10
11647;DHT22;5880;52.342;9.662;2023-06-01T16:04:25;19.50;51.10
11647;DHT22;5880;52.342;9.662;2023-06-01T16:06:51;19.50;51.10
11647;DHT22;5880;52.342;9.662;2023-06-01T16:09:17;19.50;51.90
11647;DHT22;5880;52.342;9.662;2023-06-01T16:11:42;19.50;50.90
11647;DHT22;5880;52.342;9.662;2023-06-01T16:14:08;19.50;51.30
11647;DHT22;5880;52.342;9.662;2023-06-01T16:16:34;19.50;50.70
11647;DHT22;5880;52.342;9.662;2023-06-01T16:19:00;19.50;50.70
11647;DHT22;5880;52.342;9.662;2023-06-01T16:21:26;19.50;50.60
11647;DHT22;5880;52.342;9.662;2023-06-01T16:23:52;19.50;50.50
11647;DHT22;5880;52.342;9.662;2023-06-01T16:26:17;19.40;50.50
11647;DHT22;5880;52.342;9.662;2023-06-01T16:28:43;19.40;50.30
11647;DHT22;5880;52.342;9.662;2023-06-01T16:31:11;19.40;50.30